sensor_id;sensor_type;location;lat;lon;timestamp;pressure;altitude;pressure_sealevel;temperature;humidity
38253;BME280;24785;52.372;20.672;2022-08-30T00:07:29;100832.59;;;13.16;100.00
38253;BME280;24785;52.372;20.672;2022-08-30T00:17:30;100842.38;;;13.02;100.00
38253;BME280;24785;52.372;20.672;2022-08-30T00:27:31;100838.00;;;13.11;100.00
38253;BME280;24785;52.372;20.672;2022-08-30T00:37:32;100832.25;;;13.33;100.00
38253;BME280;24785;52.372;20.672;2022-08-30T00:47:33;100825.59;;;13.15;100.00
38253;BME280;24785;52.372;20.672;2022-08-30T00:57:35;100822.25;;;12.95;100.00
38253;BME280;24785;52.372;20.672;2022-08-30T01:07:38;100820.19;;;12.76;100.00
38253;BME280;24785;52.372;20.672;2022-08-30T01:17:41;100825.66;;;12.61;100.00
38253;BME280;24785;52.372;20.672;2022-08-30T01:27:49;100821.94;;;12.52;100.00
38253;BME280;24785;52.372;20.672;2022-08-30T01:37:51;100819.59;;;12.40;100.00
38253;BME280;24785;52.372;20.672;2022-08-30T01:47:52;100821.50;;;12.29;100.00
38253;BME280;24785;52.372;20.672;2022-08-30T01:57:53;100807.84;;;12.21;100.00
38253;BME280;24785;52.372;20.672;2022-08-30T02:07:54;100819.91;;;12.34;100.00
38253;BME280;24785;52.372;20.672;2022-08-30T02:17:55;100812.09;;;12.32;100.00
38253;BME280;24785;52.372;20.672;2022-08-30T02:27:55;100801.91;;;12.24;100.00
38253;BME280;24785;52.372;20.672;2022-08-30T02:37:56;100812.16;;;12.17;100.00
38253;BME280;24785;52.372;20.672;2022-08-30T02:47:57;100814.34;;;12.00;100.00
38253;BME280;24785;52.372;20.672;2022-08-30T02:57:58;100814.66;;;11.88;100.00
38253;BME280;24785;52.372;20.672;2022-08-30T03:07:59;100820.00;;;11.73;100.00
38253;BME280;24785;52.372;20.672;2022-08-30T03:18:01;100828.09;;;11.62;100.00
38253;BME280;24785;52.372;20.672;2022-08-30T03:28:02;100824.31;;;11.63;100.00
38253;BME280;24785;52.372;20.672;2022-08-30T03:38:03;100832.38;;;11.63;100.00
38253;BME280;24785;52.372;20.672;2022-08-30T03:48:05;100829.44;;;11.55;100.00
38253;BME280;24785;52.372;20.672;2022-08-30T03:58:06;100834.00;;;11.54;100.00
38253;BME280;24785;52.372;20.672;2022-08-30T04:08:07;100828.88;;;11.98;100.00
38253;BME280;24785;52.372;20.672;2022-08-30T04:18:07;100832.97;;;12.50;100.00
38253;BME280;24785;52.372;20.672;2022-08-30T04:28:09;100839.69;;;13.41;100.00
38253;BME280;24785;52.372;20.672;2022-08-30T04:38:11;100840.56;;;14.18;100.00
38253;BME280;24785;52.372;20.672;2022-08-30T04:48:13;100863.47;;;14.69;100.00
38253;BME280;24785;52.372;20.672;2022-08-30T04:58:14;100893.50;;;15.00;100.00
38253;BME280;24785;52.372;20.672;2022-08-30T05:08:17;100916.66;;;15.25;100.00
38253;BME280;24785;52.372;20.672;2022-08-30T05:18:19;100945.34;;;15.58;100.00
38253;BME280;24785;52.372;20.672;2022-08-30T05:28:20;100954.19;;;15.96;100.00
38253;BME280;24785;52.372;20.672;2022-08-30T05:38:21;100975.97;;;16.19;100.00
38253;BME280;24785;52.372;20.672;2022-08-30T05:48:22;100986.72;;;16.51;100.00
38253;BME280;24785;52.372;20.672;2022-08-30T05:58:23;100987.72;;;16.42;100.00
38253;BME280;24785;52.372;20.672;2022-08-30T06:08:24;100997.13;;;16.30;100.00
38253;BME280;24785;52.372;20.672;2022-08-30T06:18:25;101004.63;;;16.20;100.00
38253;BME280;24785;52.372;20.672;2022-08-30T06:28:26;101011.25;;;16.27;100.00
38253;BME280;24785;52.372;20.672;2022-08-30T06:38:27;101016.28;;;16.34;100.00
38253;BME280;24785;52.372;20.672;2022-08-30T06:48:28;101023.97;;;16.73;100.00
38253;BME280;24785;52.372;20.672;2022-08-30T06:58:30;101030.50;;;17.13;100.00
38253;BME280;24785;52.372;20.672;2022-08-30T07:08:31;101035.47;;;17.34;100.00
38253;BME280;24785;52.372;20.672;2022-08-30T07:18:31;101047.69;;;17.94;100.00
38253;BME280;24785;52.372;20.672;2022-08-30T07:28:52;101064.81;;;17.81;100.00
38253;BME280;24785;52.372;20.672;2022-08-30T07:38:53;101068.84;;;18.06;100.00
38253;BME280;24785;52.372;20.672;2022-08-30T07:48:54;101078.75;;;17.88;100.00
38253;BME280;24785;52.372;20.672;2022-08-30T07:58:55;101081.44;;;17.88;100.00
38253;BME280;24785;52.372;20.672;2022-08-30T08:08:56;101087.59;;;17.80;100.00
38253;BME280;24785;52.372;20.672;2022-08-30T08:19:03;101089.88;;;18.23;100.00
38253;BME280;24785;52.372;20.672;2022-08-30T08:29:08;101094.25;;;18.55;97.65
38253;BME280;24785;52.372;20.672;2022-08-30T08:39:10;101095.94;;;18.65;98.96
38253;BME280;24785;52.372;20.672;2022-08-30T08:49:11;101100.31;;;19.14;89.96
38253;BME280;24785;52.372;20.672;2022-08-30T08:59:14;101107.06;;;19.91;83.79
38253;BME280;24785;52.372;20.672;2022-08-30T09:09:18;101103.47;;;19.07;88.99
38253;BME280;24785;52.372;20.672;2022-08-30T09:29:28;101111.38;;;19.92;84.75
38253;BME280;24785;52.372;20.672;2022-08-30T09:39:34;101113.91;;;19.62;84.38
38253;BME280;24785;52.372;20.672;2022-08-30T09:49:42;101112.44;;;19.56;85.38
38253;BME280;24785;52.372;20.672;2022-08-30T10:30:27;101132.50;;;20.38;74.67
38253;BME280;24785;52.372;20.672;2022-08-30T10:40:35;101123.53;;;20.37;71.38
38253;BME280;24785;52.372;20.672;2022-08-30T10:51:00;101126.59;;;20.45;72.43
38253;BME280;24785;52.372;20.672;2022-08-30T11:21:38;101100.88;;;21.27;66.07
38253;BME280;24785;52.372;20.672;2022-08-30T11:31:40;101101.19;;;22.05;64.36
38253;BME280;24785;52.372;20.672;2022-08-30T11:41:45;101103.09;;;22.25;62.67
38253;BME280;24785;52.372;20.672;2022-08-30T12:12:45;101118.72;;;20.26;65.15
38253;BME280;24785;52.372;20.672;2022-08-30T12:22:48;101115.47;;;20.75;66.07
38253;BME280;24785;52.372;20.672;2022-08-30T12:32:50;101115.56;;;20.96;68.60
38253;BME280;24785;52.372;20.672;2022-08-30T12:43:05;101111.19;;;20.57;68.62
38253;BME280;24785;52.372;20.672;2022-08-30T12:53:09;101099.59;;;20.78;68.83
38253;BME280;24785;52.372;20.672;2022-08-30T13:03:53;101098.75;;;20.94;69.53
38253;BME280;24785;52.372;20.672;2022-08-30T13:13:57;101101.75;;;20.55;70.02
38253;BME280;24785;52.372;20.672;2022-08-30T13:24:16;101085.91;;;21.03;63.84
38253;BME280;24785;52.372;20.672;2022-08-30T13:34:17;101084.53;;;20.89;64.53
38253;BME280;24785;52.372;20.672;2022-08-30T13:44:22;101080.63;;;20.98;63.34
38253;BME280;24785;52.372;20.672;2022-08-30T13:54:23;101080.81;;;20.93;65.50
38253;BME280;24785;52.372;20.672;2022-08-30T14:04:24;101093.47;;;19.34;73.03
38253;BME280;24785;52.372;20.672;2022-08-30T14:14:25;101087.72;;;19.27;76.11
38253;BME280;24785;52.372;20.672;2022-08-30T14:24:26;101088.16;;;19.68;74.46
38253;BME280;24785;52.372;20.672;2022-08-30T14:34:27;101085.91;;;19.53;76.61
38253;BME280;24785;52.372;20.672;2022-08-30T14:44:28;101097.06;;;19.52;77.03
38253;BME280;24785;52.372;20.672;2022-08-30T14:54:30;101093.91;;;19.58;74.77
38253;BME280;24785;52.372;20.672;2022-08-30T15:04:31;101090.03;;;19.50;74.60
38253;BME280;24785;52.372;20.672;2022-08-30T15:14:32;101092.72;;;19.42;75.69
38253;BME280;24785;52.372;20.672;2022-08-30T15:24:33;101086.81;;;19.40;77.15
38253;BME280;24785;52.372;20.672;2022-08-30T15:34:34;101078.47;;;19.36;77.40
38253;BME280;24785;52.372;20.672;2022-08-30T15:44:35;101072.41;;;19.39;77.29
38253;BME280;24785;52.372;20.672;2022-08-30T15:54:36;101064.84;;;19.28;76.24
38253;BME280;24785;52.372;20.672;2022-08-30T16:04:37;101056.91;;;19.40;74.47
38253;BME280;24785;52.372;20.672;2022-08-30T16:14:38;101058.50;;;19.41;74.60
38253;BME280;24785;52.372;20.672;2022-08-30T16:24:39;101072.06;;;19.32;76.03
38253;BME280;24785;52.372;20.672;2022-08-30T16:34:40;101065.56;;;18.94;76.93
38253;BME280;24785;52.372;20.672;2022-08-30T16:44:41;101071.16;;;18.97;77.49
38253;BME280;24785;52.372;20.672;2022-08-30T16:54:42;101073.97;;;18.30;81.75
38253;BME280;24785;52.372;20.672;2022-08-30T17:04:43;101081.25;;;18.21;84.61
38253;BME280;24785;52.372;20.672;2022-08-30T17:14:44;101090.50;;;17.84;88.07
38253;BME280;24785;52.372;20.672;2022-08-30T17:24:45;101100.28;;;17.71;91.88
38253;BME280;24785;52.372;20.672;2022-08-30T17:34:47;101115.13;;;17.46;95.49
38253;BME280;24785;52.372;20.672;2022-08-30T17:44:49;101117.16;;;17.13;100.00
38253;BME280;24785;52.372;20.672;2022-08-30T17:54:50;101138.75;;;16.72;100.00
38253;BME280;24785;52.372;20.672;2022-08-30T18:04:51;101148.31;;;16.97;100.00
38253;BME280;24785;52.372;20.672;2022-08-30T18:14:56;101158.63;;;16.95;100.00
38253;BME280;24785;52.372;20.672;2022-08-30T18:24:57;101158.22;;;16.88;100.00
38253;BME280;24785;52.372;20.672;2022-08-30T18:34:58;101166.00;;;16.76;100.00
38253;BME280;24785;52.372;20.672;2022-08-30T18:44:59;101172.41;;;16.66;100.00
38253;BME280;24785;52.372;20.672;2022-08-30T18:55:00;101169.13;;;16.13;100.00
38253;BME280;24785;52.372;20.672;2022-08-30T19:05:01;101164.56;;;15.89;100.00
38253;BME280;24785;52.372;20.672;2022-08-30T19:15:03;101144.84;;;15.89;100.00
38253;BME280;24785;52.372;20.672;2022-08-30T19:25:06;101169.47;;;16.06;100.00
38253;BME280;24785;52.372;20.672;2022-08-30T19:35:08;101162.72;;;16.09;100.00
38253;BME280;24785;52.372;20.672;2022-08-30T19:45:11;101161.81;;;16.13;100.00
38253;BME280;24785;52.372;20.672;2022-08-30T19:55:12;101163.66;;;16.18;100.00
38253;BME280;24785;52.372;20.672;2022-08-30T20:05:13;101158.53;;;16.16;100.00
38253;BME280;24785;52.372;20.672;2022-08-30T20:15:16;101156.34;;;16.18;100.00
38253;BME280;24785;52.372;20.672;2022-08-30T20:25:17;101179.88;;;16.18;100.00
38253;BME280;24785;52.372;20.672;2022-08-30T20:35:19;101177.59;;;16.25;100.00
38253;BME280;24785;52.372;20.672;2022-08-30T20:45:20;101178.19;;;16.22;100.00
38253;BME280;24785;52.372;20.672;2022-08-30T20:55:21;101172.28;;;16.20;100.00
38253;BME280;24785;52.372;20.672;2022-08-30T21:05:22;101161.22;;;16.35;100.00
38253;BME280;24785;52.372;20.672;2022-08-30T21:15:23;101170.00;;;16.27;100.00
38253;BME280;24785;52.372;20.672;2022-08-30T21:25:23;101168.84;;;16.14;100.00
38253;BME280;24785;52.372;20.672;2022-08-30T21:35:24;101165.00;;;15.96;100.00
38253;BME280;24785;52.372;20.672;2022-08-30T21:45:44;101171.44;;;16.00;100.00
38253;BME280;24785;52.372;20.672;2022-08-30T21:55:45;101166.03;;;16.00;100.00
38253;BME280;24785;52.372;20.672;2022-08-30T22:05:52;101163.78;;;15.89;100.00
38253;BME280;24785;52.372;20.672;2022-08-30T22:15:53;101156.75;;;15.88;100.00
38253;BME280;24785;52.372;20.672;2022-08-30T22:25:54;101159.38;;;15.74;100.00
38253;BME280;24785;52.372;20.672;2022-08-30T22:35:55;101161.69;;;15.57;100.00
38253;BME280;24785;52.372;20.672;2022-08-30T22:45:56;101160.06;;;15.37;100.00
38253;BME280;24785;52.372;20.672;2022-08-30T22:55:57;101155.63;;;15.22;100.00
38253;BME280;24785;52.372;20.672;2022-08-30T23:05:58;101158.69;;;15.10;100.00
38253;BME280;24785;52.372;20.672;2022-08-30T23:16:04;101152.25;;;15.06;100.00
38253;BME280;24785;52.372;20.672;2022-08-30T23:26:07;101152.38;;;14.96;100.00
38253;BME280;24785;52.372;20.672;2022-08-30T23:36:26;101150.28;;;14.88;100.00
38253;BME280;24785;52.372;20.672;2022-08-30T23:46:46;101142.41;;;14.63;100.00
38253;BME280;24785;52.372;20.672;2022-08-30T23:57:05;101143.38;;;14.38;100.00
